sensor_id;sensor_type;location;lat;lon;timestamp;P1;durP1;ratioP1;P2;durP2;ratioP2
27800;SDS011;15181;49.112;11.930;2022-08-03T00:01:36;6.30;;;5.80;;
27800;SDS011;15181;49.112;11.930;2022-08-03T00:04:03;6.40;;;5.80;;
27800;SDS011;15181;49.112;11.930;2022-08-03T00:06:31;6.30;;;5.65;;
27800;SDS011;15181;49.112;11.930;2022-08-03T00:08:58;6.80;;;6.18;;
27800;SDS011;15181;49.112;11.930;2022-08-03T00:11:25;6.00;;;5.45;;
27800;SDS011;15181;49.112;11.930;2022-08-03T00:13:52;6.20;;;5.60;;
27800;SDS011;15181;49.112;11.930;2022-08-03T00:16:20;6.00;;;5.40;;
27800;SDS011;15181;49.112;11.930;2022-08-03T00:18:49;6.20;;;5.60;;
27800;SDS011;15181;49.112;11.930;2022-08-03T00:21:15;6.15;;;5.55;;
27800;SDS011;15181;49.112;11.930;2022-08-03T00:23:42;5.93;;;5.32;;
27800;SDS011;15181;49.112;11.930;2022-08-03T00:26:09;5.63;;;5.13;;
27800;SDS011;15181;49.112;11.930;2022-08-03T00:28:36;6.10;;;5.50;;
27800;SDS011;15181;49.112;11.930;2022-08-03T00:31:03;5.63;;;5.13;;
27800;SDS011;15181;49.112;11.930;2022-08-03T00:33:31;6.45;;;5.50;;
27800;SDS011;15181;49.112;11.930;2022-08-03T00:35:58;6.03;;;5.43;;
27800;SDS011;15181;49.112;11.930;2022-08-03T00:38:24;6.63;;;5.93;;
27800;SDS011;15181;49.112;11.930;2022-08-03T00:40:51;6.30;;;5.70;;
27800;SDS011;15181;49.112;11.930;2022-08-03T00:43:23;6.47;;;5.88;;
27800;SDS011;15181;49.112;11.930;2022-08-03T00:45:51;6.65;;;5.90;;
27800;SDS011;15181;49.112;11.930;2022-08-03T00:48:19;6.30;;;5.70;;
27800;SDS011;15181;49.112;11.930;2022-08-03T00:50:47;6.72;;;6.13;;
27800;SDS011;15181;49.112;11.930;2022-08-03T00:53:14;6.50;;;5.82;;
27800;SDS011;15181;49.112;11.930;2022-08-03T00:55:41;6.60;;;5.70;;
27800;SDS011;15181;49.112;11.930;2022-08-03T00:58:08;6.25;;;5.70;;
27800;SDS011;15181;49.112;11.930;2022-08-03T01:00:36;6.38;;;5.78;;
27800;SDS011;15181;49.112;11.930;2022-08-03T01:03:05;6.70;;;6.00;;
27800;SDS011;15181;49.112;11.930;2022-08-03T01:05:34;6.65;;;6.00;;
27800;SDS011;15181;49.112;11.930;2022-08-03T01:08:10;6.10;;;5.60;;
27800;SDS011;15181;49.112;11.930;2022-08-03T01:10:48;6.90;;;5.60;;
27800;SDS011;15181;49.112;11.930;2022-08-03T01:13:20;6.43;;;5.82;;
27800;SDS011;15181;49.112;11.930;2022-08-03T01:15:53;6.75;;;6.13;;
27800;SDS011;15181;49.112;11.930;2022-08-03T01:18:25;6.15;;;5.60;;
27800;SDS011;15181;49.112;11.930;2022-08-03T01:20:56;6.45;;;5.68;;
27800;SDS011;15181;49.112;11.930;2022-08-03T01:23:34;6.90;;;5.60;;
27800;SDS011;15181;49.112;11.930;2022-08-03T01:26:20;6.30;;;5.80;;
27800;SDS011;15181;49.112;11.930;2022-08-03T01:29:09;6.13;;;5.63;;
27800;SDS011;15181;49.112;11.930;2022-08-03T01:31:52;6.32;;;5.82;;
27800;SDS011;15181;49.112;11.930;2022-08-03T01:34:27;6.50;;;5.90;;
27800;SDS011;15181;49.112;11.930;2022-08-03T01:36:57;6.15;;;5.65;;
27800;SDS011;15181;49.112;11.930;2022-08-03T01:39:26;6.60;;;6.00;;
27800;SDS011;15181;49.112;11.930;2022-08-03T01:41:57;6.50;;;5.90;;
27800;SDS011;15181;49.112;11.930;2022-08-03T01:44:30;6.60;;;6.00;;
27800;SDS011;15181;49.112;11.930;2022-08-03T01:47:03;6.40;;;5.80;;
27800;SDS011;15181;49.112;11.930;2022-08-03T01:49:32;6.50;;;6.00;;
27800;SDS011;15181;49.112;11.930;2022-08-03T01:52:03;6.45;;;5.85;;
27800;SDS011;15181;49.112;11.930;2022-08-03T01:54:31;6.93;;;5.82;;
27800;SDS011;15181;49.112;11.930;2022-08-03T01:57:01;7.00;;;6.30;;
27800;SDS011;15181;49.112;11.930;2022-08-03T01:59:29;6.55;;;5.95;;
27800;SDS011;15181;49.112;11.930;2022-08-03T02:01:59;6.20;;;5.70;;
27800;SDS011;15181;49.112;11.930;2022-08-03T02:04:29;6.70;;;6.10;;
27800;SDS011;15181;49.112;11.930;2022-08-03T02:06:56;6.88;;;6.18;;
27800;SDS011;15181;49.112;11.930;2022-08-03T02:09:24;6.55;;;5.95;;
27800;SDS011;15181;49.112;11.930;2022-08-03T02:11:52;6.85;;;6.15;;
27800;SDS011;15181;49.112;11.930;2022-08-03T02:14:21;6.38;;;5.80;;
27800;SDS011;15181;49.112;11.930;2022-08-03T02:16:50;6.65;;;5.95;;
27800;SDS011;15181;49.112;11.930;2022-08-03T02:19:17;6.30;;;5.70;;
27800;SDS011;15181;49.112;11.930;2022-08-03T02:21:46;6.15;;;5.45;;
27800;SDS011;15181;49.112;11.930;2022-08-03T02:24:16;6.00;;;5.50;;
27800;SDS011;15181;49.112;11.930;2022-08-03T02:26:43;6.30;;;5.80;;
27800;SDS011;15181;49.112;11.930;2022-08-03T02:29:12;6.43;;;5.68;;
27800;SDS011;15181;49.112;11.930;2022-08-03T02:31:43;7.75;;;6.38;;
27800;SDS011;15181;49.112;11.930;2022-08-03T02:34:12;6.32;;;5.82;;
27800;SDS011;15181;49.112;11.930;2022-08-03T02:36:41;6.78;;;6.18;;
27800;SDS011;15181;49.112;11.930;2022-08-03T02:39:10;7.07;;;6.47;;
27800;SDS011;15181;49.112;11.930;2022-08-03T02:41:41;6.80;;;6.20;;
27800;SDS011;15181;49.112;11.930;2022-08-03T02:44:11;6.60;;;6.00;;
27800;SDS011;15181;49.112;11.930;2022-08-03T02:46:40;6.63;;;6.00;;
27800;SDS011;15181;49.112;11.930;2022-08-03T02:49:10;6.70;;;6.10;;
27800;SDS011;15181;49.112;11.930;2022-08-03T02:51:39;9.20;;;6.82;;
27800;SDS011;15181;49.112;11.930;2022-08-03T02:54:08;7.28;;;6.60;;
27800;SDS011;15181;49.112;11.930;2022-08-03T02:56:37;7.18;;;6.47;;
27800;SDS011;15181;49.112;11.930;2022-08-03T02:59:05;7.15;;;6.55;;
27800;SDS011;15181;49.112;11.930;2022-08-03T03:01:32;7.22;;;6.63;;
27800;SDS011;15181;49.112;11.930;2022-08-03T03:03:59;7.05;;;6.35;;
27800;SDS011;15181;49.112;11.930;2022-08-03T03:06:27;7.47;;;6.78;;
27800;SDS011;15181;49.112;11.930;2022-08-03T03:08:55;6.55;;;5.90;;
27800;SDS011;15181;49.112;11.930;2022-08-03T03:11:23;6.80;;;6.20;;
27800;SDS011;15181;49.112;11.930;2022-08-03T03:13:52;7.25;;;6.65;;
27800;SDS011;15181;49.112;11.930;2022-08-03T03:16:21;7.45;;;6.63;;
27800;SDS011;15181;49.112;11.930;2022-08-03T03:18:50;7.07;;;6.47;;
27800;SDS011;15181;49.112;11.930;2022-08-03T03:21:19;7.38;;;6.78;;
27800;SDS011;15181;49.112;11.930;2022-08-03T03:23:46;7.30;;;6.70;;
27800;SDS011;15181;49.112;11.930;2022-08-03T03:26:14;7.20;;;6.60;;
27800;SDS011;15181;49.112;11.930;2022-08-03T03:28:41;7.00;;;6.40;;
27800;SDS011;15181;49.112;11.930;2022-08-03T03:31:10;6.68;;;6.07;;
27800;SDS011;15181;49.112;11.930;2022-08-03T03:33:37;6.85;;;6.25;;
27800;SDS011;15181;49.112;11.930;2022-08-03T03:36:04;7.38;;;6.68;;
27800;SDS011;15181;49.112;11.930;2022-08-03T03:38:32;6.75;;;6.25;;
27800;SDS011;15181;49.112;11.930;2022-08-03T03:40:59;7.32;;;6.72;;
27800;SDS011;15181;49.112;11.930;2022-08-03T03:43:27;8.13;;;6.75;;
27800;SDS011;15181;49.112;11.930;2022-08-03T03:45:54;7.03;;;6.43;;
27800;SDS011;15181;49.112;11.930;2022-08-03T03:48:24;7.22;;;6.63;;
27800;SDS011;15181;49.112;11.930;2022-08-03T03:50:51;7.38;;;6.78;;
27800;SDS011;15181;49.112;11.930;2022-08-03T03:53:19;6.88;;;6.38;;
27800;SDS011;15181;49.112;11.930;2022-08-03T03:55:46;7.20;;;6.57;;
27800;SDS011;15181;49.112;11.930;2022-08-03T03:58:12;7.35;;;6.75;;
27800;SDS011;15181;49.112;11.930;2022-08-03T04:00:39;7.13;;;6.53;;
27800;SDS011;15181;49.112;11.930;2022-08-03T04:03:09;7.18;;;6.57;;
27800;SDS011;15181;49.112;11.930;2022-08-03T04:05:37;7.45;;;6.75;;
27800;SDS011;15181;49.112;11.930;2022-08-03T04:08:21;7.53;;;6.93;;
27800;SDS011;15181;49.112;11.930;2022-08-03T04:11:08;6.85;;;6.13;;
27800;SDS011;15181;49.112;11.930;2022-08-03T04:13:38;7.20;;;6.50;;
27800;SDS011;15181;49.112;11.930;2022-08-03T04:16:09;6.90;;;6.20;;
27800;SDS011;15181;49.112;11.930;2022-08-03T04:18:40;6.95;;;6.35;;
27800;SDS011;15181;49.112;11.930;2022-08-03T04:21:13;8.00;;;6.53;;
27800;SDS011;15181;49.112;11.930;2022-08-03T04:23:43;8.63;;;7.93;;
27800;SDS011;15181;49.112;11.930;2022-08-03T04:26:13;7.15;;;6.45;;
27800;SDS011;15181;49.112;11.930;2022-08-03T04:28:44;7.15;;;6.45;;
27800;SDS011;15181;49.112;11.930;2022-08-03T04:31:13;6.90;;;6.25;;
27800;SDS011;15181;49.112;11.930;2022-08-03T04:33:41;7.00;;;6.30;;
27800;SDS011;15181;49.112;11.930;2022-08-03T04:36:11;7.07;;;6.47;;
27800;SDS011;15181;49.112;11.930;2022-08-03T04:38:43;7.13;;;6.43;;
27800;SDS011;15181;49.112;11.930;2022-08-03T04:41:19;7.25;;;6.57;;
27800;SDS011;15181;49.112;11.930;2022-08-03T04:43:49;6.88;;;6.28;;
27800;SDS011;15181;49.112;11.930;2022-08-03T04:46:20;7.00;;;6.40;;
27800;SDS011;15181;49.112;11.930;2022-08-03T04:48:48;7.32;;;6.50;;
27800;SDS011;15181;49.112;11.930;2022-08-03T04:51:17;7.80;;;7.03;;
27800;SDS011;15181;49.112;11.930;2022-08-03T04:53:44;7.28;;;6.57;;
27800;SDS011;15181;49.112;11.930;2022-08-03T04:56:11;7.57;;;6.85;;
27800;SDS011;15181;49.112;11.930;2022-08-03T04:58:38;7.70;;;7.10;;
27800;SDS011;15181;49.112;11.930;2022-08-03T05:01:05;8.00;;;7.30;;
27800;SDS011;15181;49.112;11.930;2022-08-03T05:03:32;8.13;;;6.85;;
27800;SDS011;15181;49.112;11.930;2022-08-03T05:05:59;7.55;;;6.95;;
27800;SDS011;15181;49.112;11.930;2022-08-03T05:08:27;8.02;;;7.20;;
27800;SDS011;15181;49.112;11.930;2022-08-03T05:10:54;7.88;;;7.10;;
27800;SDS011;15181;49.112;11.930;2022-08-03T05:13:21;7.57;;;6.97;;
27800;SDS011;15181;49.112;11.930;2022-08-03T05:15:47;7.70;;;7.10;;
27800;SDS011;15181;49.112;11.930;2022-08-03T05:18:14;7.72;;;7.00;;
27800;SDS011;15181;49.112;11.930;2022-08-03T05:20:41;7.63;;;7.03;;
27800;SDS011;15181;49.112;11.930;2022-08-03T05:23:08;7.43;;;6.72;;
27800;SDS011;15181;49.112;11.930;2022-08-03T05:25:36;7.60;;;6.72;;
27800;SDS011;15181;49.112;11.930;2022-08-03T05:28:03;7.28;;;6.57;;
27800;SDS011;15181;49.112;11.930;2022-08-03T05:30:30;7.43;;;6.72;;
27800;SDS011;15181;49.112;11.930;2022-08-03T05:32:57;7.10;;;6.50;;
27800;SDS011;15181;49.112;11.930;2022-08-03T05:35:24;7.30;;;6.70;;
27800;SDS011;15181;49.112;11.930;2022-08-03T05:37:52;7.68;;;6.97;;
27800;SDS011;15181;49.112;11.930;2022-08-03T05:40:19;9.10;;;7.35;;
27800;SDS011;15181;49.112;11.930;2022-08-03T05:42:47;7.30;;;6.60;;
27800;SDS011;15181;49.112;11.930;2022-08-03T05:45:14;7.68;;;6.97;;
27800;SDS011;15181;49.112;11.930;2022-08-03T05:47:42;7.72;;;6.93;;
27800;SDS011;15181;49.112;11.930;2022-08-03T05:50:09;9.27;;;6.97;;
27800;SDS011;15181;49.112;11.930;2022-08-03T05:52:36;7.80;;;7.03;;
27800;SDS011;15181;49.112;11.930;2022-08-03T05:55:04;7.15;;;6.60;;
27800;SDS011;15181;49.112;11.930;2022-08-03T05:57:31;8.07;;;7.47;;
27800;SDS011;15181;49.112;11.930;2022-08-03T05:59:59;9.80;;;7.10;;
27800;SDS011;15181;49.112;11.930;2022-08-03T06:02:28;8.60;;;7.82;;
27800;SDS011;15181;49.112;11.930;2022-08-03T06:04:54;7.90;;;7.10;;
27800;SDS011;15181;49.112;11.930;2022-08-03T06:07:21;7.80;;;7.10;;
27800;SDS011;15181;49.112;11.930;2022-08-03T06:09:49;7.35;;;6.75;;
27800;SDS011;15181;49.112;11.930;2022-08-03T06:12:16;7.60;;;6.90;;
27800;SDS011;15181;49.112;11.930;2022-08-03T06:14:43;7.47;;;6.80;;
27800;SDS011;15181;49.112;11.930;2022-08-03T06:17:11;7.88;;;7.20;;
27800;SDS011;15181;49.112;11.930;2022-08-03T06:19:38;7.93;;;7.00;;
27800;SDS011;15181;49.112;11.930;2022-08-03T06:22:04;7.75;;;6.78;;
27800;SDS011;15181;49.112;11.930;2022-08-03T06:24:31;7.65;;;6.93;;
27800;SDS011;15181;49.112;11.930;2022-08-03T06:26:58;7.70;;;6.88;;
27800;SDS011;15181;49.112;11.930;2022-08-03T06:29:25;7.97;;;7.20;;
27800;SDS011;15181;49.112;11.930;2022-08-03T06:31:52;7.32;;;6.65;;
27800;SDS011;15181;49.112;11.930;2022-08-03T06:34:20;7.20;;;6.60;;
27800;SDS011;15181;49.112;11.930;2022-08-03T06:36:47;7.63;;;6.90;;
27800;SDS011;15181;49.112;11.930;2022-08-03T06:39:15;8.07;;;7.20;;
27800;SDS011;15181;49.112;11.930;2022-08-03T06:41:42;8.23;;;7.43;;
27800;SDS011;15181;49.112;11.930;2022-08-03T06:44:10;8.38;;;7.28;;
27800;SDS011;15181;49.112;11.930;2022-08-03T06:46:37;7.68;;;6.45;;
27800;SDS011;15181;49.112;11.930;2022-08-03T06:49:05;7.70;;;7.10;;
27800;SDS011;15181;49.112;11.930;2022-08-03T06:51:33;7.47;;;6.80;;
27800;SDS011;15181;49.112;11.930;2022-08-03T06:54:00;7.00;;;6.30;;
27800;SDS011;15181;49.112;11.930;2022-08-03T06:56:27;7.32;;;6.40;;
27800;SDS011;15181;49.112;11.930;2022-08-03T06:58:54;7.03;;;6.32;;
27800;SDS011;15181;49.112;11.930;2022-08-03T07:01:21;7.03;;;6.32;;
27800;SDS011;15181;49.112;11.930;2022-08-03T07:03:47;7.25;;;6.20;;
27800;SDS011;15181;49.112;11.930;2022-08-03T07:06:14;6.70;;;6.10;;
27800;SDS011;15181;49.112;11.930;2022-08-03T07:08:42;6.32;;;5.70;;
27800;SDS011;15181;49.112;11.930;2022-08-03T07:11:09;6.90;;;6.13;;
27800;SDS011;15181;49.112;11.930;2022-08-03T07:13:36;7.57;;;6.35;;
27800;SDS011;15181;49.112;11.930;2022-08-03T07:16:05;10.48;;;6.10;;
27800;SDS011;15181;49.112;11.930;2022-08-03T07:18:32;6.43;;;5.82;;
27800;SDS011;15181;49.112;11.930;2022-08-03T07:20:59;7.68;;;5.93;;
27800;SDS011;15181;49.112;11.930;2022-08-03T07:23:26;7.05;;;6.45;;
27800;SDS011;15181;49.112;11.930;2022-08-03T07:25:54;7.55;;;6.25;;
27800;SDS011;15181;49.112;11.930;2022-08-03T07:28:21;7.03;;;6.15;;
27800;SDS011;15181;49.112;11.930;2022-08-03T07:30:48;6.50;;;5.90;;
27800;SDS011;15181;49.112;11.930;2022-08-03T07:33:14;8.73;;;5.70;;
27800;SDS011;15181;49.112;11.930;2022-08-03T07:35:41;6.13;;;5.53;;
27800;SDS011;15181;49.112;11.930;2022-08-03T07:38:08;6.82;;;6.20;;
27800;SDS011;15181;49.112;11.930;2022-08-03T07:40:35;7.07;;;5.55;;
27800;SDS011;15181;49.112;11.930;2022-08-03T07:43:03;11.52;;;5.93;;
27800;SDS011;15181;49.112;11.930;2022-08-03T07:45:30;5.65;;;5.15;;
27800;SDS011;15181;49.112;11.930;2022-08-03T07:47:57;5.72;;;5.25;;
27800;SDS011;15181;49.112;11.930;2022-08-03T07:50:24;6.80;;;5.30;;
27800;SDS011;15181;49.112;11.930;2022-08-03T07:52:51;5.90;;;5.40;;
27800;SDS011;15181;49.112;11.930;2022-08-03T07:55:20;6.38;;;5.43;;
27800;SDS011;15181;49.112;11.930;2022-08-03T07:57:57;6.00;;;5.40;;
27800;SDS011;15181;49.112;11.930;2022-08-03T08:00:27;5.53;;;5.10;;
27800;SDS011;15181;49.112;11.930;2022-08-03T08:02:54;6.25;;;5.65;;
27800;SDS011;15181;49.112;11.930;2022-08-03T08:05:21;5.90;;;5.40;;
27800;SDS011;15181;49.112;11.930;2022-08-03T08:07:47;8.30;;;5.53;;
27800;SDS011;15181;49.112;11.930;2022-08-03T08:10:14;6.68;;;5.60;;
27800;SDS011;15181;49.112;11.930;2022-08-03T08:12:41;6.30;;;5.70;;
27800;SDS011;15181;49.112;11.930;2022-08-03T08:15:08;5.93;;;5.10;;
27800;SDS011;15181;49.112;11.930;2022-08-03T08:17:43;5.65;;;5.15;;
27800;SDS011;15181;49.112;11.930;2022-08-03T08:20:14;6.45;;;5.32;;
27800;SDS011;15181;49.112;11.930;2022-08-03T08:22:41;5.78;;;5.15;;
27800;SDS011;15181;49.112;11.930;2022-08-03T08:25:08;6.25;;;5.22;;
27800;SDS011;15181;49.112;11.930;2022-08-03T08:27:39;6.18;;;5.60;;
27800;SDS011;15181;49.112;11.930;2022-08-03T08:30:11;6.20;;;5.60;;
27800;SDS011;15181;49.112;11.930;2022-08-03T08:32:39;5.75;;;5.07;;
27800;SDS011;15181;49.112;11.930;2022-08-03T08:35:08;6.40;;;5.40;;
27800;SDS011;15181;49.112;11.930;2022-08-03T08:37:36;5.60;;;5.10;;
27800;SDS011;15181;49.112;11.930;2022-08-03T08:40:03;9.60;;;5.88;;
27800;SDS011;15181;49.112;11.930;2022-08-03T08:42:31;6.18;;;5.57;;
27800;SDS011;15181;49.112;11.930;2022-08-03T08:44:58;6.28;;;5.68;;
27800;SDS011;15181;49.112;11.930;2022-08-03T08:47:28;5.80;;;5.25;;
27800;SDS011;15181;49.112;11.930;2022-08-03T08:49:56;5.78;;;5.28;;
27800;SDS011;15181;49.112;11.930;2022-08-03T08:52:27;7.13;;;5.15;;
27800;SDS011;15181;49.112;11.930;2022-08-03T08:54:56;5.90;;;5.30;;
27800;SDS011;15181;49.112;11.930;2022-08-03T08:57:27;5.45;;;4.97;;
27800;SDS011;15181;49.112;11.930;2022-08-03T08:59:55;5.28;;;4.88;;
27800;SDS011;15181;49.112;11.930;2022-08-03T09:02:23;5.53;;;5.03;;
27800;SDS011;15181;49.112;11.930;2022-08-03T09:04:50;6.63;;;5.45;;
27800;SDS011;15181;49.112;11.930;2022-08-03T09:07:18;7.20;;;5.28;;
27800;SDS011;15181;49.112;11.930;2022-08-03T09:09:46;5.40;;;4.90;;
27800;SDS011;15181;49.112;11.930;2022-08-03T09:12:13;5.53;;;5.03;;
27800;SDS011;15181;49.112;11.930;2022-08-03T09:14:40;6.05;;;5.10;;
27800;SDS011;15181;49.112;11.930;2022-08-03T09:17:07;5.00;;;4.60;;
27800;SDS011;15181;49.112;11.930;2022-08-03T09:19:34;5.32;;;4.82;;
27800;SDS011;15181;49.112;11.930;2022-08-03T09:22:09;5.72;;;5.32;;
27800;SDS011;15181;49.112;11.930;2022-08-03T09:24:37;5.32;;;4.80;;
27800;SDS011;15181;49.112;11.930;2022-08-03T09:27:06;5.22;;;4.82;;
27800;SDS011;15181;49.112;11.930;2022-08-03T09:29:38;5.77;;;5.07;;
27800;SDS011;15181;49.112;11.930;2022-08-03T09:32:07;7.53;;;5.18;;
27800;SDS011;15181;49.112;11.930;2022-08-03T09:34:36;5.63;;;5.22;;
27800;SDS011;15181;49.112;11.930;2022-08-03T09:37:03;6.32;;;4.82;;
27800;SDS011;15181;49.112;11.930;2022-08-03T09:39:38;5.40;;;4.80;;
27800;SDS011;15181;49.112;11.930;2022-08-03T09:42:07;5.72;;;5.13;;
27800;SDS011;15181;49.112;11.930;2022-08-03T09:44:35;5.90;;;5.30;;
27800;SDS011;15181;49.112;11.930;2022-08-03T09:47:06;6.03;;;5.47;;
27800;SDS011;15181;49.112;11.930;2022-08-03T09:49:35;5.72;;;5.18;;
27800;SDS011;15181;49.112;11.930;2022-08-03T09:52:10;5.63;;;5.13;;
27800;SDS011;15181;49.112;11.930;2022-08-03T09:54:39;6.75;;;6.15;;
27800;SDS011;15181;49.112;11.930;2022-08-03T09:57:08;6.90;;;5.10;;
27800;SDS011;15181;49.112;11.930;2022-08-03T09:59:46;5.82;;;5.32;;
27800;SDS011;15181;49.112;11.930;2022-08-03T10:02:19;5.50;;;5.10;;
27800;SDS011;15181;49.112;11.930;2022-08-03T10:04:47;5.88;;;5.25;;
27800;SDS011;15181;49.112;11.930;2022-08-03T10:07:17;5.75;;;5.25;;
27800;SDS011;15181;49.112;11.930;2022-08-03T10:09:52;5.63;;;5.15;;
27800;SDS011;15181;49.112;11.930;2022-08-03T10:12:21;5.80;;;5.30;;
27800;SDS011;15181;49.112;11.930;2022-08-03T10:14:49;6.10;;;5.60;;
27800;SDS011;15181;49.112;11.930;2022-08-03T10:17:16;6.68;;;5.25;;
27800;SDS011;15181;49.112;11.930;2022-08-03T10:19:44;5.68;;;5.10;;
27800;SDS011;15181;49.112;11.930;2022-08-03T10:22:12;5.57;;;5.07;;
27800;SDS011;15181;49.112;11.930;2022-08-03T10:24:44;5.68;;;5.20;;
27800;SDS011;15181;49.112;11.930;2022-08-03T10:27:16;5.93;;;5.30;;
27800;SDS011;15181;49.112;11.930;2022-08-03T10:29:48;5.53;;;4.97;;
27800;SDS011;15181;49.112;11.930;2022-08-03T10:32:20;5.53;;;5.03;;
27800;SDS011;15181;49.112;11.930;2022-08-03T10:34:51;6.15;;;5.10;;
27800;SDS011;15181;49.112;11.930;2022-08-03T10:37:25;6.57;;;5.03;;
27800;SDS011;15181;49.112;11.930;2022-08-03T10:39:55;5.82;;;5.30;;
27800;SDS011;15181;49.112;11.930;2022-08-03T10:42:27;5.70;;;5.20;;
27800;SDS011;15181;49.112;11.930;2022-08-03T10:45:02;6.35;;;5.00;;
27800;SDS011;15181;49.112;11.930;2022-08-03T10:47:30;5.45;;;5.03;;
27800;SDS011;15181;49.112;11.930;2022-08-03T10:49:59;5.45;;;5.05;;
27800;SDS011;15181;49.112;11.930;2022-08-03T10:52:27;6.35;;;5.13;;
27800;SDS011;15181;49.112;11.930;2022-08-03T10:54:54;6.68;;;5.50;;
27800;SDS011;15181;49.112;11.930;2022-08-03T10:57:49;5.55;;;4.95;;
27800;SDS011;15181;49.112;11.930;2022-08-03T11:00:19;5.57;;;5.07;;
27800;SDS011;15181;49.112;11.930;2022-08-03T11:03:01;6.00;;;5.50;;
27800;SDS011;15181;49.112;11.930;2022-08-03T11:05:31;5.80;;;5.22;;
27800;SDS011;15181;49.112;11.930;2022-08-03T11:10:54;5.93;;;5.32;;
27800;SDS011;15181;49.112;11.930;2022-08-03T11:13:23;5.55;;;5.13;;
27800;SDS011;15181;49.112;11.930;2022-08-03T11:15:54;5.60;;;5.10;;
27800;SDS011;15181;49.112;11.930;2022-08-03T11:18:23;7.57;;;5.40;;
27800;SDS011;15181;49.112;11.930;2022-08-03T11:20:51;5.35;;;4.85;;
27800;SDS011;15181;49.112;11.930;2022-08-03T11:23:19;6.85;;;5.00;;
27800;SDS011;15181;49.112;11.930;2022-08-03T11:26:14;5.80;;;5.30;;
27800;SDS011;15181;49.112;11.930;2022-08-03T11:28:43;5.90;;;5.30;;
27800;SDS011;15181;49.112;11.930;2022-08-03T11:34:14;6.00;;;5.40;;
27800;SDS011;15181;49.112;11.930;2022-08-03T11:39:50;7.78;;;5.57;;
27800;SDS011;15181;49.112;11.930;2022-08-03T11:45:09;6.00;;;5.50;;
27800;SDS011;15181;49.112;11.930;2022-08-03T11:47:38;5.45;;;4.95;;
27800;SDS011;15181;49.112;11.930;2022-08-03T11:50:06;5.70;;;5.20;;
27800;SDS011;15181;49.112;11.930;2022-08-03T11:52:34;5.97;;;5.47;;
27800;SDS011;15181;49.112;11.930;2022-08-03T11:55:02;6.20;;;5.60;;
27800;SDS011;15181;49.112;11.930;2022-08-03T11:57:35;6.10;;;5.60;;
27800;SDS011;15181;49.112;11.930;2022-08-03T12:03:05;5.60;;;5.20;;
27800;SDS011;15181;49.112;11.930;2022-08-03T12:05:44;6.07;;;5.47;;
27800;SDS011;15181;49.112;11.930;2022-08-03T12:08:18;6.00;;;5.40;;
27800;SDS011;15181;49.112;11.930;2022-08-03T12:10:58;5.70;;;5.30;;
27800;SDS011;15181;49.112;11.930;2022-08-03T12:13:38;5.88;;;5.28;;
27800;SDS011;15181;49.112;11.930;2022-08-03T12:16:08;5.97;;;5.40;;
27800;SDS011;15181;49.112;11.930;2022-08-03T12:18:37;6.22;;;5.72;;
27800;SDS011;15181;49.112;11.930;2022-08-03T12:21:04;6.80;;;5.68;;
27800;SDS011;15181;49.112;11.930;2022-08-03T12:23:32;6.07;;;5.55;;
27800;SDS011;15181;49.112;11.930;2022-08-03T12:26:03;5.93;;;5.53;;
27800;SDS011;15181;49.112;11.930;2022-08-03T12:28:31;6.20;;;5.60;;
27800;SDS011;15181;49.112;11.930;2022-08-03T12:31:00;5.80;;;5.30;;
27800;SDS011;15181;49.112;11.930;2022-08-03T12:33:28;6.10;;;5.60;;
27800;SDS011;15181;49.112;11.930;2022-08-03T12:36:03;6.47;;;5.88;;
27800;SDS011;15181;49.112;11.930;2022-08-03T12:38:32;5.88;;;5.47;;
27800;SDS011;15181;49.112;11.930;2022-08-03T12:41:02;6.13;;;5.63;;
27800;SDS011;15181;49.112;11.930;2022-08-03T12:43:30;6.38;;;5.78;;
27800;SDS011;15181;49.112;11.930;2022-08-03T12:46:10;6.75;;;6.05;;
27800;SDS011;15181;49.112;11.930;2022-08-03T12:49:01;7.75;;;5.60;;
27800;SDS011;15181;49.112;11.930;2022-08-03T12:51:33;6.10;;;5.50;;
27800;SDS011;15181;49.112;11.930;2022-08-03T12:54:01;7.00;;;5.90;;
27800;SDS011;15181;49.112;11.930;2022-08-03T12:56:29;6.40;;;5.90;;
27800;SDS011;15181;49.112;11.930;2022-08-03T12:58:56;6.10;;;5.60;;
27800;SDS011;15181;49.112;11.930;2022-08-03T13:01:23;5.72;;;5.22;;
27800;SDS011;15181;49.112;11.930;2022-08-03T13:03:52;5.85;;;5.40;;
27800;SDS011;15181;49.112;11.930;2022-08-03T13:06:20;5.80;;;5.20;;
27800;SDS011;15181;49.112;11.930;2022-08-03T13:08:49;5.85;;;5.45;;
27800;SDS011;15181;49.112;11.930;2022-08-03T13:11:29;6.45;;;5.88;;
27800;SDS011;15181;49.112;11.930;2022-08-03T13:13:57;6.07;;;5.55;;
27800;SDS011;15181;49.112;11.930;2022-08-03T13:16:27;6.10;;;5.50;;
27800;SDS011;15181;49.112;11.930;2022-08-03T13:18:56;6.47;;;5.80;;
27800;SDS011;15181;49.112;11.930;2022-08-03T13:21:23;6.07;;;5.53;;
27800;SDS011;15181;49.112;11.930;2022-08-03T13:23:52;6.45;;;5.40;;
27800;SDS011;15181;49.112;11.930;2022-08-03T13:26:23;5.95;;;5.43;;
27800;SDS011;15181;49.112;11.930;2022-08-03T13:28:50;6.90;;;5.32;;
27800;SDS011;15181;49.112;11.930;2022-08-03T13:31:17;6.63;;;5.20;;
27800;SDS011;15181;49.112;11.930;2022-08-03T13:33:45;5.93;;;5.43;;
27800;SDS011;15181;49.112;11.930;2022-08-03T13:36:12;7.50;;;5.32;;
27800;SDS011;15181;49.112;11.930;2022-08-03T13:38:39;5.57;;;5.07;;
27800;SDS011;15181;49.112;11.930;2022-08-03T13:41:08;6.15;;;5.65;;
27800;SDS011;15181;49.112;11.930;2022-08-03T13:43:35;6.07;;;5.57;;
27800;SDS011;15181;49.112;11.930;2022-08-03T13:46:02;6.28;;;5.78;;
27800;SDS011;15181;49.112;11.930;2022-08-03T13:48:30;6.25;;;5.65;;
27800;SDS011;15181;49.112;11.930;2022-08-03T13:50:57;6.15;;;5.65;;
27800;SDS011;15181;49.112;11.930;2022-08-03T13:53:25;6.32;;;5.82;;
27800;SDS011;15181;49.112;11.930;2022-08-03T13:55:53;6.35;;;5.75;;
27800;SDS011;15181;49.112;11.930;2022-08-03T13:58:22;6.20;;;5.70;;
27800;SDS011;15181;49.112;11.930;2022-08-03T14:00:49;6.13;;;5.63;;
27800;SDS011;15181;49.112;11.930;2022-08-03T14:03:16;6.60;;;5.93;;
27800;SDS011;15181;49.112;11.930;2022-08-03T14:05:44;6.53;;;5.93;;
27800;SDS011;15181;49.112;11.930;2022-08-03T14:08:13;6.05;;;5.60;;
27800;SDS011;15181;49.112;11.930;2022-08-03T14:10:40;6.13;;;5.63;;
27800;SDS011;15181;49.112;11.930;2022-08-03T14:13:09;6.40;;;5.80;;
27800;SDS011;15181;49.112;11.930;2022-08-03T14:15:38;6.25;;;5.75;;
27800;SDS011;15181;49.112;11.930;2022-08-03T14:18:06;7.70;;;6.30;;
27800;SDS011;15181;49.112;11.930;2022-08-03T14:20:34;6.80;;;6.10;;
27800;SDS011;15181;49.112;11.930;2022-08-03T14:23:01;6.93;;;6.30;;
27800;SDS011;15181;49.112;11.930;2022-08-03T14:25:28;6.53;;;6.00;;
27800;SDS011;15181;49.112;11.930;2022-08-03T14:27:56;6.65;;;6.15;;
27800;SDS011;15181;49.112;11.930;2022-08-03T14:30:23;6.18;;;5.70;;
27800;SDS011;15181;49.112;11.930;2022-08-03T14:32:52;6.50;;;6.00;;
27800;SDS011;15181;49.112;11.930;2022-08-03T14:35:22;6.10;;;5.60;;
27800;SDS011;15181;49.112;11.930;2022-08-03T14:37:50;6.50;;;6.00;;
27800;SDS011;15181;49.112;11.930;2022-08-03T14:40:17;6.85;;;6.25;;
27800;SDS011;15181;49.112;11.930;2022-08-03T14:42:44;6.20;;;5.70;;
27800;SDS011;15181;49.112;11.930;2022-08-03T14:45:12;6.72;;;5.78;;
27800;SDS011;15181;49.112;11.930;2022-08-03T14:47:39;6.25;;;5.75;;
27800;SDS011;15181;49.112;11.930;2022-08-03T14:50:08;6.18;;;5.68;;
27800;SDS011;15181;49.112;11.930;2022-08-03T14:52:36;6.50;;;6.00;;
27800;SDS011;15181;49.112;11.930;2022-08-03T14:55:03;6.40;;;5.90;;
27800;SDS011;15181;49.112;11.930;2022-08-03T14:57:31;6.35;;;5.85;;
27800;SDS011;15181;49.112;11.930;2022-08-03T14:59:58;6.90;;;6.30;;